Saint Inigoes, Maryland
Current Conditions -  °F | °C
As of 10:53 PM on Monday 20 Oct 2014 (Local Time) from KNUI Reporting Station
Clear Clear  
Wind Chill: 59°   Ceiling: Unl
Heat Index: 59°   Visibility: 10mi
Dew Point: 45°   Wind: 5mph
Humidity: 60%   Direction: 170°S
Pressure: 29.97"   Gusts: NA
Location:  38.17°N, 76.41°W
Report Text: KNUI 210253Z AUTO 17004KT 10SM CLR 15/07 A2997 RMK AO2 SLP148 T01500072 58003
Loading
Personal Weather Stations






























Interactive Weather Map
Tropical Storm Tracking
New forecast layout! Learn more

10-Day Weather Forecast

Advertisements
Track Severe Weather on mobile